Time;durP1;ratioP1;P1;durP2;ratioP2;P2;SDS_P1;SDS_P2;PMS_P1;PMS_P2;Temp;Humidity;BMP_temperature;BMP_pressure;BME280_temperature;BME280_humidity;BME280_pressure;Samples;Min_cycle;Max_cycle;Signal;HPM_P1;HPM_P2
2021/04/02 00:01:36;;;;;;;10.43;2.72;;;;;;;5.53;71.54;102645.00;5132467;28;20043;-40
2021/04/02 00:04:01;;;;;;;8.10;3.20;;;;;;;5.59;71.40;102644.38;5134180;28;20023;-40
2021/04/02 00:06:27;;;;;;;9.43;3.33;;;;;;;5.57;71.24;102643.69;5134732;28;20075;-40
2021/04/02 00:08:52;;;;;;;8.70;3.10;;;;;;;5.54;71.07;102641.31;5134037;28;20026;-40
2021/04/02 00:11:17;;;;;;;7.03;2.37;;;;;;;5.65;71.00;102643.75;5134092;28;20114;-40
2021/04/02 00:13:46;;;;;;;5.03;2.60;;;;;;;5.65;71.07;102638.38;5134227;28;20034;-40
2021/04/02 00:16:14;;;;;;;6.90;3.03;;;;;;;5.59;71.08;102631.78;5133488;28;20031;-40
2021/04/02 00:18:40;;;;;;;6.82;2.60;;;;;;;5.57;71.10;102630.28;5134208;28;20062;-40
2021/04/02 00:21:08;;;;;;;8.70;2.45;;;;;;;5.55;71.30;102638.47;5134483;28;20459;-40
2021/04/02 00:23:35;;;;;;;7.82;2.50;;;;;;;5.59;70.83;102639.84;5133868;28;20023;-40
2021/04/02 00:26:01;;;;;;;7.70;2.92;;;;;;;5.48;70.99;102640.09;5134142;28;20042;-40
2021/04/02 00:28:26;;;;;;;8.87;2.70;;;;;;;5.58;70.60;102637.34;5134162;28;20019;-40
2021/04/02 00:30:57;;;;;;;7.22;2.90;;;;;;;5.57;70.92;102633.81;5133564;27;20291;-40
2021/04/02 00:33:26;;;;;;;8.63;2.80;;;;;;;5.35;71.27;102634.25;5136659;27;20023;-40
2021/04/02 00:35:51;;;;;;;7.90;3.25;;;;;;;5.37;71.12;102641.19;5137494;27;20033;-40
2021/04/02 00:38:17;;;;;;;6.60;3.47;;;;;;;5.34;71.15;102638.78;5137305;27;20023;-40
2021/04/02 00:40:52;;;;;;;7.65;3.20;;;;;;;5.27;71.33;102637.72;5137365;27;20027;-40
2021/04/02 00:43:21;;;;;;;9.95;3.00;;;;;;;5.23;71.51;102643.53;5137864;27;20034;-40
2021/04/02 00:45:46;;;;;;;10.63;3.83;;;;;;;5.09;71.97;102639.53;5137876;27;20089;-40
2021/04/02 00:48:12;;;;;;;9.67;3.23;;;;;;;5.15;72.37;102634.41;5137543;27;20027;-40
2021/04/02 00:50:48;;;;;;;7.33;2.80;;;;;;;5.10;71.85;102638.53;5137280;27;20034;-40
2021/04/02 00:53:14;;;;;;;8.30;3.00;;;;;;;5.02;71.91;102635.75;5137375;27;20264;-40
2021/04/02 00:55:40;;;;;;;7.35;3.20;;;;;;;5.09;72.37;102639.53;5137152;27;20031;-40
2021/04/02 00:58:07;;;;;;;;;;;;;;;5.25;69.91;102638.84;5137412;27;20027;-40
2021/04/02 01:00:33;;;;;;;;;;;;;;;5.29;69.59;102643.75;5137737;27;19916;-40
2021/04/02 01:02:59;;;;;;;6.75;2.90;;;;;;;5.07;72.29;102646.88;5137500;27;19911;-40
2021/04/02 01:05:29;;;;;;;7.18;2.97;;;;;;;5.05;71.99;102648.88;5137781;27;20432;-40
2021/04/02 01:07:58;;;;;;;9.23;3.50;;;;;;;5.10;72.18;102644.72;5136633;27;20045;-40
2021/04/02 01:10:24;;;;;;;8.40;2.92;;;;;;;5.02;72.77;102649.16;5137162;27;20039;-40
2021/04/02 01:13:07;;;;;;;7.90;3.55;;;;;;;5.03;72.27;102648.19;5137317;27;20080;-40
2021/04/02 01:15:44;;;;;;;11.65;3.30;;;;;;;4.91;73.07;102642.16;5137023;27;20463;-40
2021/04/02 01:18:20;;;;;;;8.98;3.17;;;;;;;4.83;73.45;102642.06;5136824;27;20444;-40
2021/04/02 01:20:50;;;;;;;6.65;2.75;;;;;;;4.87;72.97;102641.63;5137168;27;20035;-40
2021/04/02 01:23:20;;;;;;;7.53;3.10;;;;;;;4.88;73.74;102637.09;5136879;27;20027;-40
2021/04/02 01:26:23;;;;;;;7.38;3.17;;;;;;;4.94;72.72;102638.38;5136484;27;20027;-40
2021/04/02 01:29:00;;;;;;;6.88;3.08;;;;;;;4.89;73.23;102625.41;5136504;27;20023;-40
2021/04/02 01:31:26;;;;;;;9.65;3.13;;;;;;;4.94;73.29;102633.00;5136420;27;20106;-40
2021/04/02 01:33:54;;;;;;;8.27;3.30;;;;;;;4.91;73.29;102637.66;5136104;27;20031;-40
2021/04/02 01:36:21;;;;;;;9.13;3.25;;;;;;;4.79;74.16;102636.19;5136829;27;20379;-40
2021/04/02 01:38:48;;;;;;;10.07;3.70;;;;;;;4.62;73.00;102636.97;5136980;27;20023;-40
2021/04/02 01:41:14;;;;;;;7.75;3.22;;;;;;;4.58;74.60;102636.41;5136515;27;20097;-40
2021/04/02 01:43:43;;;;;;;7.88;3.63;;;;;;;4.51;75.06;102640.69;5135711;27;20031;-40
2021/04/02 01:46:09;;;;;;;6.97;3.30;;;;;;;4.55;74.83;102643.91;5136168;27;20031;-40
2021/04/02 01:48:42;;;;;;;10.73;3.60;;;;;;;4.49;75.18;102634.63;5134659;27;20090;-40
2021/04/02 01:51:09;;;;;;;9.50;3.00;;;;;;;4.59;74.58;102642.63;5134236;27;20035;-40
2021/04/02 01:53:40;;;;;;;9.20;3.33;;;;;;;4.53;75.15;102635.16;5135685;27;20050;-40
2021/04/02 01:56:07;;;;;;;7.88;3.42;;;;;;;4.51;76.04;102638.00;5135968;27;20023;-40
2021/04/02 01:58:36;;;;;;;11.90;3.63;;;;;;;4.52;75.48;102630.81;5135496;27;20032;-40
2021/04/02 02:01:03;;;;;;;9.75;3.40;;;;;;;4.56;75.42;102633.03;5137025;27;20057;-40
2021/04/02 02:03:30;;;;;;;7.47;3.15;;;;;;;4.49;75.54;102633.75;5135470;27;20515;-40
2021/04/02 02:05:56;;;;;;;10.55;2.88;;;;;;;4.49;75.78;102641.81;5135754;27;20072;-40
2021/04/02 02:08:23;;;;;;;7.10;3.10;;;;;;;4.47;75.14;102639.28;5135692;27;20027;-40
2021/04/02 02:11:07;;;;;;;8.43;2.92;;;;;;;4.45;75.71;102641.28;5135301;27;20054;-40
2021/04/02 02:13:34;;;;;;;7.38;3.17;;;;;;;4.49;75.73;102640.00;5135312;27;20144;-40
2021/04/02 02:16:05;;;;;;;8.07;2.97;;;;;;;4.43;75.53;102637.88;5135646;27;20035;-40
2021/04/02 02:18:31;;;;;;;7.28;3.15;;;;;;;4.34;76.17;102634.28;5135710;27;20027;-40
2021/04/02 02:20:56;;;;;;;8.60;3.00;;;;;;;4.28;75.95;102634.81;5136233;27;20332;-41
2021/04/02 02:23:22;;;;;;;9.00;3.10;;;;;;;4.25;75.86;102634.31;5135333;27;20037;-40
2021/04/02 02:25:48;;;;;;;10.30;3.45;;;;;;;4.16;76.70;102635.16;5135017;27;20076;-40
2021/04/02 02:28:13;;;;;;;7.07;3.23;;;;;;;4.17;75.38;102629.66;5135272;27;20062;-40
2021/04/02 02:30:39;;;;;;;9.60;3.00;;;;;;;4.19;76.42;102635.69;5135253;27;20046;-40
2021/04/02 02:33:05;;;;;;;7.75;3.00;;;;;;;4.18;76.47;102631.34;5135148;27;20027;-40
2021/04/02 02:35:30;;;;;;;7.05;2.85;;;;;;;4.12;76.58;102630.09;5135471;27;20030;-40
2021/04/02 02:37:57;;;;;;;10.50;2.83;;;;;;;4.11;77.07;102632.91;5135594;27;20027;-40
2021/04/02 02:40:27;;;;;;;8.07;2.92;;;;;;;4.16;76.64;102627.97;5135090;27;20027;-40
2021/04/02 02:42:55;;;;;;;6.50;2.80;;;;;;;4.19;76.21;102625.00;5133535;27;20475;-40
2021/04/02 02:45:20;;;;;;;8.93;3.10;;;;;;;4.20;76.65;102623.16;5135019;27;20380;-40
2021/04/02 02:47:46;;;;;;;7.32;3.10;;;;;;;4.18;76.42;102620.63;5134932;27;20030;-40
2021/04/02 02:50:32;;;;;;;8.07;2.72;;;;;;;4.20;75.80;102626.69;5134676;27;20023;-40
2021/04/02 02:52:59;;;;;;;6.63;2.45;;;;;;;4.13;76.28;102630.94;5134916;27;20034;-40
2021/04/02 02:55:27;;;;;;;9.25;3.10;;;;;;;4.18;75.89;102631.34;5134645;27;20035;-40
2021/04/02 02:57:55;;;;;;;10.88;2.78;;;;;;;4.17;76.74;102632.34;5135026;27;20038;-40
2021/04/02 03:00:24;;;;;;;6.82;2.85;;;;;;;4.09;76.78;102632.22;5134899;27;20475;-40
2021/04/02 03:02:52;;;;;;;5.60;2.65;;;;;;;4.11;76.69;102627.56;5134673;27;20103;-40
2021/04/02 03:05:22;;;;;;;9.23;3.50;;;;;;;3.97;77.68;102628.03;5134286;27;20466;-40
2021/04/02 03:07:52;;;;;;;9.38;3.10;;;;;;;3.96;76.93;102629.84;5134395;27;20062;-40
2021/04/02 03:10:18;;;;;;;5.50;3.08;;;;;;;3.98;77.81;102630.53;5134968;27;20041;-40
2021/04/02 03:12:45;;;;;;;8.10;2.70;;;;;;;4.04;76.89;102631.78;5134679;27;20031;-40
2021/04/02 03:15:14;;;;;;;6.55;2.75;;;;;;;4.00;77.10;102633.94;5134524;27;20031;-40
2021/04/02 03:17:41;;;;;;;9.30;2.65;;;;;;;4.01;76.29;102627.59;5134360;28;20094;-40
2021/04/02 03:20:08;;;;;;;9.77;2.90;;;;;;;3.92;76.98;102632.97;5135051;27;20038;-40
2021/04/02 03:22:34;;;;;;;5.63;2.70;;;;;;;3.86;77.57;102637.91;5134438;28;20383;-40
2021/04/02 03:25:00;;;;;;;;;;;;;;;4.01;75.96;102643.66;5135502;28;20028;-40
2021/04/02 03:27:28;;;;;;;8.65;2.53;;;;;;;3.90;77.03;102640.28;5134301;27;19907;-40
2021/04/02 03:29:54;;;;;;;8.43;2.70;;;;;;;3.88;77.48;102641.28;5134762;28;20046;-40
2021/04/02 03:32:23;;;;;;;6.85;2.63;;;;;;;3.92;77.04;102641.84;5134453;28;20019;-40
2021/04/02 03:34:52;;;;;;;7.80;2.65;;;;;;;3.90;77.71;102638.44;5133382;28;20058;-40
2021/04/02 03:37:18;;;;;;;6.85;2.40;;;;;;;3.84;77.99;102637.19;5134264;28;20027;-40
2021/04/02 03:39:46;;;;;;;9.07;2.60;;;;;;;3.85;76.88;102638.88;5115284;28;20039;-40
2021/04/02 03:42:14;;;;;;;10.05;2.88;;;;;;;3.90;77.16;102640.28;5134547;28;20383;-40
2021/04/02 03:44:41;;;;;;;8.98;2.65;;;;;;;3.87;78.40;102636.06;5133969;28;20144;-40
2021/04/02 03:47:14;;;;;;;5.78;2.47;;;;;;;3.88;76.98;102643.09;5134295;28;20106;-40
2021/04/02 03:49:42;;;;;;;7.63;2.63;;;;;;;3.99;78.11;102640.25;5134474;28;20447;-40
2021/04/02 03:52:14;;;;;;;7.90;2.60;;;;;;;3.97;77.56;102641.41;5134162;28;20502;-41
2021/04/02 03:54:42;;;;;;;11.27;3.00;;;;;;;3.98;77.45;102635.06;5133913;28;20058;-40
2021/04/02 03:57:11;;;;;;;4.60;2.25;;;;;;;3.93;77.83;102637.31;5133817;28;20027;-40
2021/04/02 03:59:39;;;;;;;6.38;2.42;;;;;;;3.93;77.85;102646.19;5134429;28;20438;-40
2021/04/02 04:02:06;;;;;;;7.80;2.90;;;;;;;3.82;77.80;102639.16;5134921;28;20032;-40
2021/04/02 04:04:32;;;;;;;6.85;2.47;;;;;;;3.92;78.39;102641.00;5134160;28;20111;-40
2021/04/02 04:07:00;;;;;;;9.13;2.90;;;;;;;3.85;77.68;102644.22;5136657;27;20084;-40
2021/04/02 04:09:30;;;;;;;5.53;2.28;;;;;;;3.80;76.76;102638.44;5138357;27;20031;-40
2021/04/02 04:11:57;;;;;;;7.43;2.80;;;;;;;3.71;78.29;102643.81;5137971;27;20037;-40
2021/04/02 04:14:23;;;;;;;6.18;2.40;;;;;;;3.63;78.34;102639.19;5138816;27;20025;-40
2021/04/02 04:16:49;;;;;;;6.40;2.50;;;;;;;3.74;78.58;102647.06;5137987;27;20110;-40
2021/04/02 04:19:15;;;;;;;;;;;;;;;3.75;77.70;102643.38;5138029;27;20031;-40
2021/04/02 04:21:43;;;;;;;6.57;2.60;;;;;;;3.66;79.14;102646.94;5137490;27;19918;-40
2021/04/02 04:24:19;;;;;;;7.18;3.05;;;;;;;3.65;79.03;102642.56;5138092;27;20071;-40
2021/04/02 04:26:46;;;;;;;6.68;2.83;;;;;;;3.55;79.56;102649.75;5138307;27;20064;-40
2021/04/02 04:29:16;;;;;;;8.25;2.40;;;;;;;3.59;79.20;102648.47;5137874;27;20070;-40
2021/04/02 04:31:43;;;;;;;7.95;2.60;;;;;;;3.65;78.95;102644.38;5138154;27;20031;-40
2021/04/02 04:34:10;;;;;;;8.10;2.70;;;;;;;3.62;79.33;102648.22;5137281;27;20481;-40
2021/04/02 04:36:37;;;;;;;7.40;2.75;;;;;;;3.52;79.43;102647.38;5137752;27;20050;-40
2021/04/02 04:39:05;;;;;;;9.38;3.00;;;;;;;3.55;79.49;102647.91;5137114;27;20034;-40
2021/04/02 04:41:33;;;;;;;5.47;2.70;;;;;;;3.57;79.70;102648.63;5137105;27;20031;-40
2021/04/02 04:43:59;;;;;;;11.65;3.10;;;;;;;3.56;79.44;102656.78;5137210;27;20027;-40
2021/04/02 04:46:25;;;;;;;6.70;2.72;;;;;;;3.59;79.17;102654.66;5136697;27;20035;-40
2021/04/02 04:48:50;;;;;;;6.30;2.47;;;;;;;3.60;78.72;102658.19;5137575;27;20384;-40
2021/04/02 04:51:19;;;;;;;8.13;2.77;;;;;;;3.67;78.80;102659.31;5137309;27;20253;-39
2021/04/02 04:53:48;;;;;;;7.30;2.60;;;;;;;3.64;78.65;102656.06;5136902;27;20379;-40
2021/04/02 04:56:15;;;;;;;5.82;2.55;;;;;;;3.65;78.32;102665.78;5137450;27;20027;-39
2021/04/02 04:58:46;;;;;;;6.40;2.63;;;;;;;3.61;77.85;102659.88;5137499;27;20031;-40
2021/04/02 05:01:13;;;;;;;8.05;2.55;;;;;;;3.52;78.43;102658.06;5138033;27;20363;-40
2021/04/02 05:03:39;;;;;;;6.10;2.63;;;;;;;3.58;79.21;102663.69;5137318;27;20031;-40
2021/04/02 05:06:06;;;;;;;7.32;2.58;;;;;;;3.53;79.10;102660.59;5137801;27;20091;-40
2021/04/02 05:08:43;;;;;;;6.47;2.83;;;;;;;3.54;79.40;102662.28;5136528;27;20482;-40
2021/04/02 05:11:15;;;;;;;11.50;2.65;;;;;;;3.50;79.28;102662.69;5136788;27;20015;-40
2021/04/02 05:13:41;;;;;;;10.00;3.05;;;;;;;3.52;79.24;102664.25;5137053;27;20073;-40
2021/04/02 05:16:07;;;;;;;5.32;2.55;;;;;;;3.48;80.15;102670.03;5136807;27;20027;-39
2021/04/02 05:18:33;;;;;;;8.23;3.10;;;;;;;3.49;80.75;102669.03;5135851;27;20097;-39
2021/04/02 05:20:59;;;;;;;7.63;2.70;;;;;;;3.54;79.87;102666.78;5136950;27;20329;-40
2021/04/02 05:23:24;;;;;;;9.88;2.90;;;;;;;3.53;79.61;102679.31;5137185;27;20031;-39
2021/04/02 05:25:50;;;;;;;8.10;3.10;;;;;;;3.52;79.90;102679.47;5136681;27;20053;-40
2021/04/02 05:28:15;;;;;;;8.43;2.97;;;;;;;3.56;79.99;102680.84;5137099;27;20044;-40
2021/04/02 05:30:41;;;;;;;7.83;2.87;;;;;;;3.59;79.95;102676.06;5136538;27;20030;-40
2021/04/02 05:33:06;;;;;;;7.30;2.83;;;;;;;3.56;79.16;102686.19;5136659;27;20060;-40
2021/04/02 05:35:32;;;;;;;8.05;3.05;;;;;;;3.53;79.30;102690.00;5136650;27;20081;-40
2021/04/02 05:37:58;;;;;;;8.18;2.80;;;;;;;3.52;78.90;102685.66;5136170;27;20380;-40
2021/04/02 05:40:24;;;;;;;10.43;2.95;;;;;;;3.50;80.18;102692.97;5136640;27;20076;-40
2021/04/02 05:43:11;;;;;;;7.90;3.03;;;;;;;3.56;80.20;102687.06;5134939;27;20395;-40
2021/04/02 05:45:38;;;;;;;10.05;2.88;;;;;;;3.52;80.55;102692.84;5135392;27;20043;-41
2021/04/02 05:48:04;;;;;;;8.18;2.50;;;;;;;3.55;79.97;102696.06;5136156;27;20031;-40
2021/04/02 05:50:32;;;;;;;8.02;3.22;;;;;;;3.63;80.65;102703.41;5136034;27;20061;-40
2021/04/02 05:53:05;;;;;;;11.45;3.30;;;;;;;3.68;80.22;102694.94;5134663;27;20019;-40
2021/04/02 05:55:34;;;;;;;10.65;2.90;;;;;;;3.66;79.53;102692.44;5135956;27;20041;-41
2021/04/02 05:58:04;;;;;;;12.35;3.28;;;;;;;3.73;80.25;102696.22;5135439;27;20023;-41
2021/04/02 06:00:30;;;;;;;10.85;3.38;;;;;;;3.84;80.11;102696.06;5136365;27;20051;-41
2021/04/02 06:02:58;;;;;;;;;;;;;;;3.94;79.22;102695.22;5136183;27;20028;-40
2021/04/02 06:05:24;;;;;;;6.32;2.80;;;;;;;3.94;79.17;102706.75;5135546;27;19980;-41
2021/04/02 06:07:50;;;;;;;9.27;3.08;;;;;;;3.88;79.60;102700.16;5135331;27;20475;-40
2021/04/02 06:10:16;;;;;;;8.75;2.80;;;;;;;4.04;79.22;102701.41;5135868;27;20046;-40
2021/04/02 06:12:42;;;;;;;9.37;3.17;;;;;;;4.08;79.35;102697.44;5135178;27;20474;-41
2021/04/02 06:15:08;;;;;;;11.23;3.08;;;;;;;4.06;79.07;102694.09;5135738;27;20031;-40
2021/04/02 06:17:52;;;;;;;;;;;;;;;4.23;77.94;102701.38;5135658;27;20051;-40
2021/04/02 06:20:17;;;;;;;9.40;2.75;;;;;;;4.26;77.42;102701.09;5135522;27;20279;-40
2021/04/02 06:22:43;;;;;;;9.77;2.90;;;;;;;4.26;78.05;102698.41;5134869;27;20023;-40
2021/04/02 06:25:09;;;;;;;11.82;3.15;;;;;;;4.41;77.64;102703.31;5135049;27;20098;-40
2021/04/02 06:27:34;;;;;;;9.00;2.70;;;;;;;4.45;77.14;102700.22;5135067;27;20027;-40
2021/04/02 06:30:03;;;;;;;7.33;2.50;;;;;;;4.43;77.89;102696.81;5135150;27;20027;-40
2021/04/02 06:32:37;;;;;;;5.78;2.45;;;;;;;4.37;78.28;102700.91;5135124;27;20038;-40
2021/04/02 06:35:11;;;;;;;10.93;2.75;;;;;;;4.49;77.55;102701.59;5135188;27;20519;-40
2021/04/02 06:37:37;;;;;;;9.85;2.50;;;;;;;4.54;77.16;102702.03;5134998;27;20023;-40
2021/04/02 06:40:14;;;;;;;8.80;2.65;;;;;;;4.59;77.04;102707.78;5135132;27;20459;-40
2021/04/02 06:42:43;;;;;;;8.57;2.88;;;;;;;4.71;76.72;102708.44;5135151;27;20030;-40
2021/04/02 06:45:09;;;;;;;6.63;2.20;;;;;;;4.79;76.22;102703.19;5134802;27;20030;-40
2021/04/02 06:47:43;;;;;;;8.93;2.83;;;;;;;4.87;76.26;102705.13;5134862;27;20035;-40
2021/04/02 06:50:15;;;;;;;9.48;2.65;;;;;;;4.97;76.05;102699.72;5135172;27;20019;-40
2021/04/02 06:52:40;;;;;;;9.15;2.53;;;;;;;5.03;75.94;102704.50;5134904;27;20027;-40
2021/04/02 06:55:08;;;;;;;8.70;2.53;;;;;;;5.00;75.67;102711.00;5135047;27;20062;-40
2021/04/02 06:57:34;;;;;;;10.38;3.35;;;;;;;4.89;75.96;102711.19;5133534;27;20328;-40
2021/04/02 07:00:00;;;;;;;15.90;3.70;;;;;;;4.98;75.27;102706.75;5134556;27;20348;-40
2021/04/02 07:02:27;;;;;;;15.40;3.13;;;;;;;5.04;75.37;102704.34;5134527;27;20031;-40
2021/04/02 07:04:54;;;;;;;10.32;2.97;;;;;;;5.05;74.91;102703.34;5135528;27;20076;-40
2021/04/02 07:07:20;;;;;;;10.73;3.20;;;;;;;5.03;75.60;102716.06;5134319;27;20027;-40
2021/04/02 07:09:45;;;;;;;10.25;2.25;;;;;;;5.13;74.70;102713.34;5135258;27;20386;-40
2021/04/02 07:12:11;;;;;;;9.97;2.87;;;;;;;5.13;74.57;102724.91;5134318;27;20026;-40
2021/04/02 07:14:39;;;;;;;14.05;2.80;;;;;;;5.19;74.12;102718.09;5135251;27;20027;-40
2021/04/02 07:17:05;;;;;;;9.15;2.40;;;;;;;5.14;73.86;102718.53;5134788;27;20027;-40
2021/04/02 07:19:31;;;;;;;11.48;2.95;;;;;;;5.27;74.12;102720.00;5134956;27;20067;-40
2021/04/02 07:21:58;;;;;;;8.30;2.20;;;;;;;5.34;73.10;102716.59;5134522;28;20027;-40
2021/04/02 07:24:24;;;;;;;6.60;1.98;;;;;;;5.53;73.29;102712.94;5135084;28;20110;-40
2021/04/02 07:26:51;;;;;;;8.90;2.42;;;;;;;5.67;72.72;102714.25;5134534;28;20031;-40
2021/04/02 07:29:18;;;;;;;9.10;2.00;;;;;;;5.87;71.78;102726.50;5134739;28;20473;-40
2021/04/02 07:31:45;;;;;;;9.38;2.33;;;;;;;5.93;71.06;102725.09;5134261;28;20030;-40
2021/04/02 07:34:11;;;;;;;11.73;2.90;;;;;;;6.03;71.34;102730.38;5134295;28;20083;-40
2021/04/02 07:36:37;;;;;;;6.78;2.10;;;;;;;6.07;70.14;102716.47;5134597;28;20084;-40
2021/04/02 07:39:06;;;;;;;5.67;1.70;;;;;;;5.99;70.73;102727.13;5134653;28;20447;-40
2021/04/02 07:41:38;;;;;;;10.10;2.20;;;;;;;6.02;70.09;102742.13;5136074;27;20027;-40
2021/04/02 07:44:05;;;;;;;10.27;2.55;;;;;;;6.11;70.14;102728.59;5139100;27;20383;-40
2021/04/02 07:46:31;;;;;;;10.60;2.22;;;;;;;6.24;69.82;102735.41;5138999;27;20023;-40
2021/04/02 07:49:05;;;;;;;6.53;1.90;;;;;;;6.04;68.91;102737.41;5138397;27;20030;-40
2021/04/02 07:51:43;;;;;;;6.28;2.72;;;;;;;5.86;69.66;102729.38;5139238;27;20102;-40
2021/04/02 07:54:31;;;;;;;7.68;1.90;;;;;;;6.09;69.60;102730.59;5138369;27;20023;-40
2021/04/02 07:57:02;;;;;;;6.28;2.00;;;;;;;6.16;68.93;102731.66;5137999;27;20030;-41
2021/04/02 07:59:36;;;;;;;7.70;2.28;;;;;;;6.41;68.20;102732.69;5138305;27;20027;-40
2021/04/02 08:02:04;;;;;;;10.25;1.83;;;;;;;6.56;67.01;102734.78;5138794;27;20047;-40
2021/04/02 08:04:41;;;;;;;7.65;1.92;;;;;;;6.52;67.06;102730.72;5138517;27;20027;-40
2021/04/02 08:07:14;;;;;;;6.93;2.15;;;;;;;6.74;68.39;102738.28;5138161;27;20455;-40
2021/04/02 08:09:49;;;;;;;9.07;1.85;;;;;;;6.92;66.61;102738.19;5138133;27;20022;-40
2021/04/02 08:12:21;;;;;;;8.93;1.75;;;;;;;6.88;65.40;102732.28;5138230;27;20058;-40
2021/04/02 08:14:49;;;;;;;4.72;1.40;;;;;;;7.13;65.43;102730.56;5137944;27;20034;-40
2021/04/02 08:17:19;;;;;;;8.25;2.17;;;;;;;7.37;64.71;102735.19;5137472;27;20024;-40
2021/04/02 08:19:45;;;;;;;10.23;1.88;;;;;;;7.30;63.48;102734.13;5137836;27;20055;-40
2021/04/02 08:22:13;;;;;;;7.03;1.98;;;;;;;7.36;63.33;102738.00;5137771;27;20387;-40
2021/04/02 08:24:41;;;;;;;7.70;1.65;;;;;;;7.55;63.89;102736.91;5137819;27;20027;-40
2021/04/02 08:27:07;;;;;;;7.22;2.03;;;;;;;7.53;63.23;102742.44;5137739;27;20031;-40
2021/04/02 08:29:34;;;;;;;8.45;2.03;;;;;;;7.52;63.53;102739.94;5138559;27;20359;-40
2021/04/02 08:32:03;;;;;;;6.47;2.05;;;;;;;7.45;63.61;102743.25;5137944;27;20024;-40
2021/04/02 08:34:30;;;;;;;8.05;3.08;;;;;;;7.43;62.49;102747.13;5137916;27;20031;-40
2021/04/02 08:36:58;;;;;;;8.55;2.13;;;;;;;7.26;62.97;102751.59;5136345;27;20034;-40
2021/04/02 08:39:25;;;;;;;7.72;1.98;;;;;;;7.23;64.75;102751.94;5138121;27;20401;-40
2021/04/02 08:41:59;;;;;;;10.45;2.25;;;;;;;7.18;64.63;102759.66;5137472;27;20046;-40
2021/04/02 08:44:37;;;;;;;6.97;2.08;;;;;;;7.00;63.88;102765.13;5137670;27;20027;-40
2021/04/02 08:47:06;;;;;;;6.13;1.80;;;;;;;7.02;64.28;102760.41;5137332;27;20024;-40
2021/04/02 08:49:56;;;;;;;11.95;2.20;;;;;;;7.01;64.88;102768.66;5137254;27;20038;-40
2021/04/02 08:52:29;;;;;;;6.00;1.67;;;;;;;7.00;63.43;102765.13;5136648;27;20034;-40
2021/04/02 08:55:00;;;;;;;7.70;1.67;;;;;;;6.91;63.47;102761.53;5137902;27;20076;-40
2021/04/02 08:57:29;;;;;;;7.78;2.33;;;;;;;6.74;63.46;102761.63;5136798;27;20026;-40
2021/04/02 08:59:55;;;;;;;8.25;2.30;;;;;;;6.77;62.82;102761.28;5137549;27;20030;-40
2021/04/02 09:02:25;;;;;;;6.13;1.50;;;;;;;7.06;63.44;102751.03;5137922;27;20055;-40
2021/04/02 09:04:51;;;;;;;6.72;1.60;;;;;;;7.27;60.42;102744.38;5137276;27;20042;-40
2021/04/02 09:07:17;;;;;;;8.88;2.08;;;;;;;7.37;61.78;102753.16;5136988;27;20467;-40
2021/04/02 09:09:46;;;;;;;6.40;1.70;;;;;;;7.60;60.70;102746.16;5136907;27;20020;-41
2021/04/02 09:12:17;;;;;;;6.35;1.70;;;;;;;7.87;59.76;102746.88;5136868;27;20023;-40
2021/04/02 09:14:50;;;;;;;4.95;1.60;;;;;;;8.17;59.00;102740.00;5136815;27;20031;-40
2021/04/02 09:17:23;;;;;;;10.32;2.35;;;;;;;8.25;58.28;102748.09;5137009;27;20059;-40
2021/04/02 09:19:50;;;;;;;8.73;1.80;;;;;;;8.47;59.49;102754.66;5137305;27;20027;-40
2021/04/02 09:22:16;;;;;;;6.50;1.80;;;;;;;8.31;57.17;102750.09;5135520;27;20534;-40
2021/04/02 09:24:43;;;;;;;4.97;1.75;;;;;;;8.30;57.80;102756.50;5136698;27;20062;-40
2021/04/02 09:27:16;;;;;;;7.68;1.77;;;;;;;8.24;57.88;102746.38;5136875;27;20059;-40
2021/04/02 09:29:46;;;;;;;5.95;2.00;;;;;;;8.10;57.51;102760.53;5136515;27;20023;-40
2021/04/02 09:32:12;;;;;;;6.63;1.75;;;;;;;8.18;57.85;102761.38;5136781;27;20027;-40
2021/04/02 09:34:37;;;;;;;10.63;2.42;;;;;;;8.15;57.49;102758.16;5136806;27;20034;-40
2021/04/02 09:37:04;;;;;;;5.03;1.50;;;;;;;8.22;57.30;102764.59;5136331;27;20455;-40
2021/04/02 09:39:30;;;;;;;;;;;;;;;8.41;57.89;102758.03;5137339;27;20347;-40
2021/04/02 09:42:01;;;;;;;6.50;1.70;;;;;;;8.27;56.07;102756.84;5136325;27;19911;-40
2021/04/02 09:44:32;;;;;;;5.22;1.40;;;;;;;8.35;56.58;102751.44;5136053;27;20442;-41
2021/04/02 09:47:04;;;;;;;5.45;1.65;;;;;;;8.39;56.48;102751.97;5136756;27;20087;-40
2021/04/02 09:49:32;;;;;;;4.43;1.63;;;;;;;8.21;56.33;102741.34;5136480;27;20023;-41
2021/04/02 09:51:58;;;;;;;6.95;2.08;;;;;;;8.15;56.24;102733.91;5136040;27;20115;-40
2021/04/02 09:54:24;;;;;;;;;;;;;;;7.98;57.45;102731.22;5136552;27;20030;-41
2021/04/02 09:56:51;;;;;;;6.00;1.80;;;;;;;8.03;57.98;102735.28;5136080;27;20283;-40
2021/04/02 09:59:17;;;;;;;5.15;1.83;;;;;;;7.98;59.18;102739.31;5136486;27;20031;-40
2021/04/02 10:01:43;;;;;;;3.97;1.63;;;;;;;8.11;58.15;102736.13;5136302;27;20046;-40
2021/04/02 10:04:10;;;;;;;7.35;1.88;;;;;;;8.21;56.71;102739.50;5135772;27;20030;-40
2021/04/02 10:06:37;;;;;;;9.38;2.25;;;;;;;8.30;56.62;102734.94;5135565;27;20023;-40
2021/04/02 10:09:04;;;;;;;7.90;1.70;;;;;;;8.37;57.55;102740.53;5135627;27;20454;-40
2021/04/02 10:11:31;;;;;;;12.07;1.58;;;;;;;8.32;56.42;102734.75;5136334;27;20027;-40
2021/04/02 10:13:56;;;;;;;;;;;;;;;8.48;57.24;102735.59;5135772;27;20450;-40
2021/04/02 10:16:21;;;;;;;9.00;1.80;;;;;;;8.51;56.44;102731.75;5135672;27;19954;-40
2021/04/02 10:18:49;;;;;;;8.73;1.63;;;;;;;8.42;55.22;102728.22;5135508;27;20027;-40
2021/04/02 10:21:16;;;;;;;5.30;1.58;;;;;;;8.43;55.72;102737.97;5135833;27;20038;-40
2021/04/02 10:23:41;;;;;;;6.13;1.67;;;;;;;8.47;56.44;102747.41;5134881;27;20054;-40
2021/04/02 10:26:07;;;;;;;9.13;2.10;;;;;;;8.62;55.61;102749.41;5135425;27;20058;-40
2021/04/02 10:28:32;;;;;;;4.82;1.75;;;;;;;8.68;55.06;102746.84;5135604;27;20042;-40
2021/04/02 10:30:59;;;;;;;4.10;1.67;;;;;;;8.79;54.82;102747.53;5135052;27;20114;-40
2021/04/02 10:33:24;;;;;;;8.70;2.17;;;;;;;8.83;55.26;102746.16;5135348;27;20058;-40
2021/04/02 10:35:50;;;;;;;5.10;1.60;;;;;;;8.82;55.52;102756.09;5135873;27;20066;-40
2021/04/02 10:38:15;;;;;;;8.82;2.15;;;;;;;8.77;55.76;102747.69;5133777;27;20035;-40
2021/04/02 10:40:41;;;;;;;7.80;1.77;;;;;;;8.61;55.54;102748.56;5135472;27;20042;-40
2021/04/02 10:43:07;;;;;;;6.80;1.65;;;;;;;8.63;56.08;102749.22;5134792;27;20080;-40
2021/04/02 10:45:33;;;;;;;4.30;1.50;;;;;;;8.82;56.14;102748.00;5135878;27;20127;-40
2021/04/02 10:47:58;;;;;;;;;;;;;;;9.00;55.82;102748.63;5135389;27;20038;-39
2021/04/02 10:50:26;;;;;;;6.70;1.70;;;;;;;8.85;55.09;102747.66;5135770;27;19907;-40
2021/04/02 10:52:51;;;;;;;9.10;1.73;;;;;;;9.03;55.13;102745.59;5134909;27;20038;-40
2021/04/02 10:55:17;;;;;;;5.72;1.60;;;;;;;9.03;54.86;102753.69;5134696;27;20035;-40
2021/04/02 10:57:43;;;;;;;5.90;1.60;;;;;;;9.06;54.46;102757.03;5135360;27;20412;-40
2021/04/02 11:00:09;;;;;;;;;;;;;;;9.16;54.20;102754.97;5135048;27;20046;-40
2021/04/02 11:02:35;;;;;;;9.25;1.70;;;;;;;8.72;53.42;102758.16;5135449;27;19921;-41
2021/04/02 11:05:00;;;;;;;5.00;1.70;;;;;;;8.78;53.93;102752.06;5135060;27;20031;-41
2021/04/02 11:07:26;;;;;;;6.73;2.20;;;;;;;8.54;55.27;102746.72;5134679;27;20031;-40
2021/04/02 11:09:52;;;;;;;7.57;1.90;;;;;;;8.52;55.03;102753.13;5134950;27;20366;-40
2021/04/02 11:12:17;;;;;;;5.15;2.15;;;;;;;8.64;55.16;102748.25;5135275;27;20031;-40
2021/04/02 11:14:43;;;;;;;6.87;1.50;;;;;;;8.76;53.99;102744.16;5135222;27;20040;-40
2021/04/02 11:17:08;;;;;;;4.68;1.58;;;;;;;8.62;53.90;102754.81;5133861;27;20050;-40
2021/04/02 11:19:34;;;;;;;12.77;1.80;;;;;;;8.54;54.77;102752.97;5134271;27;20607;-40
2021/04/02 11:21:59;;;;;;;9.63;2.00;;;;;;;8.63;54.34;102757.31;5134578;28;20035;-40
2021/04/02 11:24:24;;;;;;;7.03;1.90;;;;;;;8.68;54.88;102744.16;5134560;28;20450;-40
2021/04/02 11:26:50;;;;;;;7.00;1.67;;;;;;;8.88;54.10;102741.06;5134925;28;20034;-40
2021/04/02 11:29:15;;;;;;;7.13;1.90;;;;;;;8.90;54.15;102737.19;5134211;28;20475;-40
2021/04/02 11:31:40;;;;;;;8.27;2.07;;;;;;;9.07;53.35;102737.13;5134081;28;20276;-40
2021/04/02 11:34:06;;;;;;;8.23;1.90;;;;;;;9.28;53.29;102735.53;5134983;28;20058;-39
2021/04/02 11:36:31;;;;;;;7.57;2.00;;;;;;;9.33;52.77;102732.31;5134408;28;20102;-40
2021/04/02 11:38:57;;;;;;;9.00;1.83;;;;;;;9.35;52.49;102732.13;5135048;28;20118;-40